TimeEST,TemperatureF,Dew PointF,Humidity,Sea Level PressureIn,VisibilityMPH,Wind Direction,Wind SpeedMPH,Gust SpeedMPH,PrecipitationIn,Events,Conditions,WindDirDegrees,DateUTC
12:53 AM,55.0,51.1,86,30.18,9.0,North,9.2,18.4,N/A,,Overcast,350,2012-11-19 05:53:00
1:35 AM,55.4,51.8,88,30.18,10.0,North,10.4,17.3,N/A,,Overcast,350,2012-11-19 06:35:00
1:53 AM,55.0,51.1,86,30.17,10.0,North,11.5,-,N/A,,Overcast,360,2012-11-19 06:53:00
2:53 AM,55.0,51.1,86,30.17,10.0,North,15.0,19.6,N/A,,Overcast,10,2012-11-19 07:53:00
3:53 AM,55.0,51.1,86,30.18,10.0,NW,6.9,16.1,N/A,,Overcast,320,2012-11-19 08:53:00
4:53 AM,55.0,50.0,83,30.18,10.0,NNW,10.4,-,N/A,,Overcast,340,2012-11-19 09:53:00
5:08 AM,55.4,50.0,82,30.18,10.0,North,8.1,-,N/A,,Overcast,350,2012-11-19 10:08:00
5:53 AM,55.0,50.0,83,30.18,10.0,North,6.9,-,N/A,,Overcast,350,2012-11-19 10:53:00
6:53 AM,55.0,50.0,83,30.20,10.0,NNW,11.5,17.3,N/A,,Overcast,340,2012-11-19 11:53:00
7:53 AM,54.0,50.0,86,30.20,10.0,North,8.1,17.3,N/A,,Overcast,350,2012-11-19 12:53:00
8:53 AM,54.0,50.0,86,30.21,9.0,North,12.7,17.3,N/A,,Overcast,360,2012-11-19 13:53:00
9:53 AM,55.0,50.0,83,30.21,10.0,North,10.4,18.4,N/A,,Overcast,350,2012-11-19 14:53:00
10:53 AM,55.9,51.1,84,30.21,10.0,NNW,5.8,-,N/A,,Overcast,340,2012-11-19 15:53:00
11:53 AM,57.0,51.1,81,30.19,10.0,NNW,10.4,-,N/A,,Overcast,340,2012-11-19 16:53:00
12:22 PM,57.2,50.0,77,30.17,10.0,North,10.4,-,N/A,,Overcast,10,2012-11-19 17:22:00
12:53 PM,59.0,50.0,72,30.15,10.0,North,12.7,-,N/A,,Overcast,10,2012-11-19 17:53:00
1:53 PM,60.1,51.1,72,30.14,10.0,North,11.5,-,N/A,,Overcast,350,2012-11-19 18:53:00
2:53 PM,60.1,51.1,72,30.13,10.0,North,9.2,-,N/A,,Overcast,10,2012-11-19 19:53:00
3:53 PM,59.0,52.0,78,30.14,10.0,North,8.1,-,N/A,,Overcast,360,2012-11-19 20:53:00
4:53 PM,60.1,53.1,78,30.13,10.0,NNW,3.5,-,N/A,,Overcast,330,2012-11-19 21:53:00
5:53 PM,59.0,53.1,81,30.14,10.0,NNW,4.6,-,N/A,,Overcast,330,2012-11-19 22:53:00
6:53 PM,59.0,53.1,81,30.14,10.0,North,5.8,-,N/A,,Overcast,360,2012-11-19 23:53:00
7:53 PM,60.1,54.0,80,30.13,10.0,NNE,8.1,-,N/A,,Overcast,30,2012-11-20 00:53:00
8:53 PM,60.1,53.1,78,30.15,10.0,NW,3.5,-,N/A,,Overcast,320,2012-11-20 01:53:00
9:53 PM,60.1,54.0,80,30.14,10.0,North,4.6,-,N/A,,Overcast,10,2012-11-20 02:53:00
10:53 PM,59.0,53.1,81,30.13,10.0,Calm,Calm,-,N/A,,Overcast,0,2012-11-20 03:53:00
11:43 PM,57.2,51.8,82,30.11,10.0,North,5.8,-,N/A,,Scattered Clouds,10,2012-11-20 04:43:00
11:53 PM,57.9,52.0,81,30.12,10.0,North,4.6,-,N/A,,Clear,360,2012-11-20 04:53:00